This is the latest recevied weather packets stored in our database for station/object N2MLB-WX. If no packets are shown the sender has not sent any weather packets the latest 10 day(s).
| Time | Temp. | Humidity | Pressure | Rain* | Wind** | Luminosity | Snow |
|---|---|---|---|---|---|---|---|
| 1777959140 | 14.44° C | 90% | 999 hPa | 2.29 mm | - | 0 W/m² | - |
| 1777958840 | 15° C | 82% | 999 hPa | 0.51 mm | - | 0 W/m² | - |
| 1777958540 | 15.56° C | 78% | 999 hPa | 0.25 mm | - | 0 W/m² | - |
| 1777958240 | 15.56° C | 80% | 999 hPa | 0.51 mm | - | 0 W/m² | - |
| 1777957939 | 15.56° C | 78% | 999 hPa | 0.51 mm | - | 0 W/m² | - |
| 1777957641 | 15.56° C | 78% | 999 hPa | 0.25 mm | - | 0 W/m² | - |
| 1777957340 | 16.67° C | 73% | 999 hPa | 0.25 mm | - | 0 W/m² | - |
| 1777957041 | 16.67° C | 69% | 999 hPa | 0.51 mm | - | 0 W/m² | - |
| 1777956739 | 16.67° C | 71% | 999 hPa | 1.02 mm | - | 0 W/m² | - |
| 1777956440 | 16.67° C | 72% | 999 hPa | 1.52 mm | - | 0 W/m² | - |
| 1777956144 | 16.67° C | 71% | 999 hPa | 12.7 mm | - | 0 W/m² | - |
| 1777955840 | 16.11° C | 75% | 999 hPa | 0 mm | - | 0 W/m² | - |
| 1777955541 | 15.56° C | 82% | 999 hPa | 0 mm | - | 0 W/m² | - |
| 1777955241 | 16.11° C | 77% | 999 hPa | 0 mm | - | 0 W/m² | - |
| 1777954944 | 16.67° C | 77% | 999 hPa | 1.27 mm | - | 0 W/m² | - |
| 1777954639 | 16.11° C | 78% | 999 hPa | 1.78 mm | - | 0 W/m² | - |
| 1777954342 | 16.67° C | 77% | 999 hPa | 2.03 mm | - | 0 W/m² | - |
| 1777954041 | 16.67° C | 77% | 999 hPa | 2.79 mm | - | 0 W/m² | - |
| 1777953740 | 15.56° C | 79% | 999 hPa | 4.32 mm | - | 0 W/m² | - |
| 1777953440 | 15.56° C | 81% | 999 hPa | 7.11 mm | - | 0 W/m² | - |
| 1777953142 | 16.67° C | 72% | 999 hPa | 25.65 mm | - | 0 W/m² | - |
| 1777952840 | 17.78° C | 64% | 999 hPa | 0 mm | - | 0 W/m² | - |
| 1777952544 | 17.78° C | 64% | 999 hPa | 0 mm | - | 0 W/m² | - |
| 1777952241 | 17.78° C | 64% | 999 hPa | 0 mm | - | 0 W/m² | - |
| 1777951942 | 17.22° C | 64% | 999 hPa | 0 mm | - | 0 W/m² | - |
* Rain latest hour (hover to see other rain measurements)
** Current wind speed in m/s (hover to see current wind gust speed)